TABS, Texas Automated Buoy System, NOAA HAZMAT, Ocean Observatory, Real Time Oceanographic Data Supporting Oil Spill Prevention and Response

Texas General Land Office
 Texas General Land Office
 George P. Bush, Commissioner

 Oil Spill Prevention
 & Response

Texas Automated Buoy System
Real Time Ocean Observations
Supporting Oil Spill Prevention and
Response since 1995
Geochemical and Environmental Research Group

TABS Buoy K -- Texas Automated Buoy System

TABS Buoy K Conditions at 07/16/2019 11:15 UTC (07/16/2019 06:15 CDT)
26° 13.0080'N   96° 29.9880'W
AA3900 DCS - sensor depth 2m
Anemometer height: 4m
Water Depth: 204 feet (62 meters)
Speed: N/A            Direction: N/A            Water Temp: 0°C (32 °F)
System Voltage: 0.0 V Signal Strength: 0.0 dB Ping Count: 0
Wind: 5.2 m/s (10.0 kts)
          From 145°T (SE)
Air Temp: 27 °C (81 °F)
Relative Humidity:  80 %
Pressure: 1017.7 mb (30.05 inHg)
Waves: 1.1 m (3.6 ft) @ 6 sec
  


IMPORTANT: Notice to Mariners


Today's Meteorological Data (download)

   Date   |  Time  |  VEast   North    AirT  AtmPr     Gust   Comp   Tx   Ty    PAR   RelH
          |  (UTC) |  (m/s)|  (m/s)|   (°C)|  (mb) |  (m/s)|  (°M) |    |    |      |  (%) |
==========+========+=======+=======+=======+=======+=======+=======+====+====+======+======+
07/05/2019 00:00:00   -4.84    4.49    27.3 1013.43    7.93   248.2    0    0    0.0   81.4
07/05/2019 00:30:00   -5.07    4.44    27.5 1013.36    7.80   246.5    0    0    0.0   81.1
07/05/2019 01:00:00   -4.74    4.61    27.2 1013.76    7.54   248.9    0    0    0.0   81.7
07/05/2019 01:30:00   -4.66    4.54    27.0 1013.72    7.65   245.8    0    0    0.0   82.3
07/05/2019 02:00:00   -4.85    4.83    27.0 1013.85    8.10   248.4    0    0    0.0   82.0
07/05/2019 02:30:00   -4.86    4.66    26.9 1013.76    8.02   246.0    0    0    0.0   82.4
07/05/2019 03:00:00   -5.03    5.31    27.0 1013.96    8.69   246.7    0    0    0.0   83.3
07/05/2019 03:30:00   -4.34    4.94    26.9 1014.54    7.88   247.6    0    0    0.0   83.1
07/05/2019 04:00:00   -3.86    4.84    26.9 1015.24    7.19   251.8    0    0    0.0   84.1
07/05/2019 04:30:00   -3.46    4.52    27.1 1015.62    6.89   249.7    0    0    0.0   83.5
07/05/2019 05:00:00   -3.17    4.32    27.0 1015.87    6.20   254.0    0    0    0.0   84.4
07/05/2019 05:30:00   -2.95    4.50    27.0 1016.26    6.36   254.8    0    0    0.0   84.0
07/05/2019 06:00:00   -2.92    3.85    26.9 1015.99    5.73   249.5    0    0    0.0   85.3
07/05/2019 06:30:00   -3.37    3.84    26.8 1015.91    5.92   247.9    0    0    0.0   86.1
07/05/2019 07:00:00   -3.36    3.98    26.8 1015.64    6.07   249.8    0    0    0.0   86.2
07/05/2019 07:30:00   -3.20    4.97    26.8 1015.51    7.02   254.1    0    0    0.0   84.8
07/05/2019 08:00:00   -3.67    4.77    27.0 1015.46    6.98   252.5    0    0    0.0   84.5
07/05/2019 08:30:00   -3.89    5.08    26.8 1015.45    7.45   252.6    0    0    0.0   84.6
07/05/2019 09:00:00   -3.62    5.22    27.2 1015.40    7.52   255.5    0    0    0.0   84.8
07/05/2019 09:30:00   -3.70    5.31    27.0 1015.10    7.62   256.9    0    0    0.0   84.4
07/05/2019 10:00:00   -3.67    5.34    26.9 1015.18    7.82   256.0    0    0    0.0   84.6
07/05/2019 10:30:00   -3.54    5.01    26.9 1015.29    7.28   255.1    0    0    0.0   84.8
07/05/2019 11:00:00   -3.65    4.84    26.7 1015.37    7.19   257.0    0    0    0.0   84.8
07/05/2019 11:30:00   -3.49    5.50    26.8 1015.46    7.69   259.2    0    0    0.0   84.5
07/05/2019 12:00:00   -3.39    5.75    26.8 1015.75    7.89   261.1    0    0    0.0   82.5
07/05/2019 12:30:00   -3.07    5.76    26.9 1016.12    7.58   263.7    0    0    0.0   81.8
07/05/2019 13:00:00   -3.27    5.61    27.2 1016.48    7.39   262.0    0    0    0.0   81.8
07/05/2019 13:30:00   -3.00    5.32    27.2 1016.92    7.11   262.8    0    0    0.0   82.6
07/05/2019 14:00:00   -3.04    4.65    27.3 1017.16    6.28   261.6    0    0    0.0   81.1
07/05/2019 14:30:00   -3.41    4.90    27.3 1017.19    6.73   259.6    0    0    0.0   80.7
07/05/2019 15:00:00   -3.44    4.94    27.3 1017.31    6.83   260.4    0    0    0.0   80.6
07/05/2019 15:30:00   -3.19    4.75    27.2 1017.65    6.65   262.2    0    0    0.0   80.5
07/05/2019 16:00:00   -2.97    4.23    27.3 1017.69    6.02   263.8    0    0    0.0   80.3



       
 

Today's Wave Data    


   Date   |  Time  |Sig Wave Ht| Peak Period|
          |  (UTC) | (meters)  |    (sec)   |
==========+========+===========+============+
07/05/2019 00:21:00     1.12        7
07/05/2019 01:20:59     1.23        7
07/05/2019 02:21:00     1.19        6
07/05/2019 03:21:00     1.24        6
07/05/2019 04:21:02     1.16        7
07/05/2019 05:21:00     1.22        5
07/05/2019 06:20:59     1.26        6
07/05/2019 07:21:00     1.18        7
07/05/2019 08:20:59     1.12        6
07/05/2019 09:20:59     1.12        6
07/05/2019 10:21:00     1.18        6
07/05/2019 11:21:00     1.08        6
07/05/2019 12:20:59     1.09        6
07/05/2019 14:20:59     1.16        6
07/05/2019 15:20:59     1.06        6
07/05/2019 16:21:04     1.11        6